Detalii statie VIITORUL MAILAT [00001CF8]

Toti senzorii

Date Temperatura solului [C]Precipitatii [mm]Voltaj baterie [mV]HC Air temperature [C]HC Relative humidity [%]Punctul de roua [C]
medieminmaxsumaultimamedieminmaxmediemediemin
2019-08-15 20:00:00 22.6 22.5 22.7 0 7118 19.94 18.4 20.73 100 19.9 18.4
2019-08-15 21:00:00 22.6 22.4 22.8 0 7000 17.01 15.65 18.01 100 16.9 15.6
2019-08-15 22:00:00 22.6 22.5 22.8 0 6962 14.62 14.06 15.41 100 14.5 14
2019-08-15 23:00:00 22.5 22.5 22.6 0 6952 13.41 12.99 14.03 100 13.3 12.9
2019-08-16 00:00:00 22.4 22.3 22.5 0 6962 12.83 12.44 13.15 100 12.7 12.4
2019-08-16 01:00:00 22.3 22 22.5 0 6942 13.37 12.6 13.82 100 13.3 12.6
2019-08-16 02:00:00 22.2 22.1 22.4 0 6952 13.51 13.13 13.82 100 13.4 13.1
2019-08-16 03:00:00 22.1 22 22.3 0 6942 12.67 11.73 13.58 100 12.6 11.7
2019-08-16 04:00:00 21.9 21.9 22.1 0 6932 10.49 10.18 11.34 100 10.4 10.1
2019-08-16 05:00:00 21.8 21.8 21.9 0 6922 10.55 10.05 10.8 100 10.5 10
2019-08-16 06:00:00 21.6 21.5 21.8 0 6914 10.68 10.38 10.95 100 10.6 10.3
2019-08-16 07:00:00 21.5 21.3 21.6 0.2 6904 13.19 11.46 15.78 100 13.1 11.4
2019-08-16 08:00:00 21.4 21.3 21.6 0 6942 16.34 15.1 18.96 100 16.2 15.1
2019-08-16 09:00:00 21.2 21.2 21.4 0 7020 21.36 18.51 23.83 100 21.3 18.5
2019-08-16 10:00:00 21.1 21.1 21.3 0 7158 25.2 24.3 26.37 98.65 24.9 24.3
2019-08-16 11:00:00 21.1 21.1 21.2 0 7284 26.25 24.99 27.34 91.71 24.6 22.8
2019-08-16 12:00:00 21.1 21.1 21.3 0 7284 27.34 25.89 28.69 88.86 25.1 23.5
2019-08-16 13:00:00 21.2 21.1 21.5 0 7284 27.74 25.15 29.89 80.92 24 21.6
2019-08-16 14:00:00 21.4 21.3 21.6 0 7284 27.61 25.72 30.07 75.93 22.8 21.6
2019-08-16 15:00:00 21.7 21.5 21.9 0 7284 28.62 26.37 30.64 74.18 23.4 21.3
2019-08-16 16:00:00 21.8 21.7 22.1 0 7284 26.64 26.1 27.75 77.33 22.1 21.2
2019-08-16 17:00:00 22 21.9 22.2 0 7274 26.4 25.68 27.4 77.48 21.9 21.4
2019-08-16 18:00:00 22.1 22.1 22.2 0 7206 25.07 24.59 26.07 82.61 21.7 21.4
2019-08-16 19:00:00 22.2 22.1 22.4 0 7108 24.17 22.43 26.45 87.13 21.7 20.9
2019-08-16 20:00:00 22.3 22.2 22.6 0 7000 21.22 19.94 22.88 99.98 21.1 19.9
2019-08-16 21:00:00 22.2 22.1 22.6 0 6952 19.11 18.25 19.72 100 19 18.2
2019-08-16 22:00:00 22.3 22.2 22.6 0 6942 17.76 17.06 18.1 100 17.7 17
2019-08-16 23:00:00 22.3 22.2 22.4 0 6952 16.48 15.76 17.06 100 16.4 15.7
2019-08-17 00:00:00 22.2 22.1 22.4 0 6952 15.89 15.48 16.45 100 15.8 15.4
2019-08-17 01:00:00 22.1 22 22.2 0 6942 15.66 14.69 16.46 100 15.6 14.6
2019-08-17 02:00:00 22 22 22.2 0 6932 13.71 13 14.74 100 13.6 13
2019-08-17 03:00:00 21.9 21.8 22.1 0 6922 12.58 12.18 13.2 100 12.5 12.1
2019-08-17 04:00:00 21.8 21.7 22 0 6904 13.4 12.84 14.03 100 13.3 12.8
2019-08-17 05:00:00 21.7 21.6 21.9 0 6904 14.26 14 14.52 100 14.2 14
2019-08-17 06:00:00 21.6 21.6 21.8 0 6894 13.86 13.14 14.42 100 13.8 13.1
2019-08-17 07:00:00 21.5 21.3 21.6 0 6904 14.06 12.87 15.56 100 14 12.8
2019-08-17 08:00:00 21.4 21.3 21.6 0 6952 18.29 16.35 20.6 100 18.2 16.3
2019-08-17 09:00:00 21.3 21.2 21.4 0 7040 21.39 20.03 22.93 100 21.3 20
2019-08-17 10:00:00 21.2 21.1 21.3 0 7196 24.88 23.13 26.2 100 24.8 23.1
2019-08-17 11:00:00 21.1 21 21.3 0 7284 26.59 25.55 27.29 100 26.5 25.5
2019-08-17 12:00:00 21.2 21.1 21.3 0 7284 26.93 25.01 28.69 99.53 26.8 25
2019-08-17 13:00:00 21.4 21.2 21.7 0 7284 27.42 25.06 30.91 97.39 26.8 24.8
2019-08-17 14:00:00 21.5 21.5 21.7 0 7274 30.61 29.48 31.38 87.49 28.1 26.4
2019-08-17 15:00:00 21.7 21.6 22 0 7274 29.06 27.77 30.83 86.33 26.3 24.5
2019-08-17 16:00:00 21.9 21.8 22.1 0 7274 28.05 27.33 28.65 87.44 25.5 24.7
2019-08-17 17:00:00 22.1 22 22.3 0 7294 27.75 27.34 28.18 82.16 24.2 23.5
2019-08-17 18:00:00 22.3 22.2 22.5 0 7236 27 26.05 27.86 85.24 24.1 23.3
2019-08-17 19:00:00 22.3 22.3 22.5 0 7216 26.32 25.38 27.1 88.8 24.1 23.3